Time;durP1;ratioP1;P1;durP2;ratioP2;P2;SDS_P1;SDS_P2;PMS_P1;PMS_P2;Temp;Humidity;BMP_temperature;BMP_pressure;BME280_temperature;BME280_humidity;BME280_pressure;Samples;Min_cycle;Max_cycle;Signal;HPM_P1;HPM_P2
2022/09/24 00:02:00;;;;;;;0.00;0.00;;;12.40;72.70;;;;;;5090694;28;20032;-80
2022/09/24 00:04:26;;;;;;;0.00;0.00;;;12.40;72.70;;;;;;5089352;28;20039;-79
2022/09/24 00:06:53;;;;;;;0.00;0.00;;;12.40;72.70;;;;;;5090789;28;20032;-78
2022/09/24 00:09:20;;;;;;;0.00;0.00;;;12.40;72.70;;;;;;5091307;28;20032;-79
2022/09/24 00:11:48;;;;;;;0.00;0.00;;;12.40;72.60;;;;;;5091858;28;20039;-79
2022/09/24 00:14:16;;;;;;;0.00;0.00;;;12.30;72.60;;;;;;5095834;28;20028;-79
2022/09/24 00:16:43;;;;;;;0.00;0.00;;;12.30;72.60;;;;;;5096311;28;20020;-79
2022/09/24 00:19:11;;;;;;;0.00;0.00;;;12.30;72.70;;;;;;5095535;28;20027;-79
2022/09/24 00:21:38;;;;;;;0.00;0.00;;;12.30;72.70;;;;;;5094900;28;20384;-75
2022/09/24 00:24:07;;;;;;;0.00;0.00;;;12.20;72.80;;;;;;5092239;28;20047;-75
2022/09/24 00:26:48;;;;;;;0.00;0.00;;;12.20;72.90;;;;;;5092423;28;20491;-75
2022/09/24 00:29:18;;;;;;;0.00;0.00;;;12.20;72.90;;;;;;5092940;28;20608;-75
2022/09/24 00:31:44;;;;;;;0.00;0.00;;;12.20;72.90;;;;;;5092689;28;20028;-75
2022/09/24 00:34:09;;;;;;;0.00;0.00;;;12.20;72.90;;;;;;5092670;28;20111;-75
2022/09/24 00:36:36;;;;;;;0.00;0.00;;;12.20;72.90;;;;;;5075876;28;20035;-75
2022/09/24 00:39:02;;;;;;;0.00;0.00;;;12.10;72.80;;;;;;5092483;28;20029;-75
2022/09/24 00:41:31;;;;;;;0.00;0.00;;;12.10;72.80;;;;;;5092455;28;20028;-75
2022/09/24 00:43:57;;;;;;;0.00;0.00;;;12.10;72.90;;;;;;5092198;28;20120;-75
2022/09/24 00:46:26;;;;;;;0.00;0.00;;;12.10;72.80;;;;;;5093795;28;20020;-75
2022/09/24 00:48:57;;;;;;;0.00;0.00;;;12.10;72.90;;;;;;5092621;28;20465;-75
2022/09/24 00:51:25;;;;;;;0.00;0.00;;;12.10;72.90;;;;;;5092694;28;20032;-75
2022/09/24 00:53:55;;;;;;;0.00;0.00;;;12.10;72.90;;;;;;5093539;28;20020;-75
2022/09/24 00:56:22;;;;;;;0.00;0.00;;;12.10;72.90;;;;;;5093426;28;20485;-75
2022/09/24 00:58:55;;;;;;;0.00;0.00;;;12.10;72.80;;;;;;5092259;28;20032;-75
2022/09/24 01:01:22;;;;;;;0.00;0.00;;;12.10;72.90;;;;;;5093625;28;20512;-75
2022/09/24 01:03:51;;;;;;;0.00;0.00;;;12.00;72.80;;;;;;5093491;28;20107;-75
2022/09/24 01:06:17;;;;;;;0.00;0.00;;;12.00;72.80;;;;;;5093775;28;20130;-75
2022/09/24 01:08:44;;;;;;;0.00;0.00;;;12.00;72.80;;;;;;5058773;28;20131;-73
2022/09/24 01:11:14;;;;;;;0.00;0.00;;;11.90;72.90;;;;;;5091959;28;20036;-75
2022/09/24 01:14:02;;;;;;;0.13;0.10;;;12.00;72.90;;;;;;5091475;28;20424;-75
2022/09/24 01:16:52;;;;;;;0.00;0.00;;;12.00;72.90;;;;;;5091514;28;20421;-75
2022/09/24 01:19:40;;;;;;;0.00;0.00;;;12.00;72.90;;;;;;5092838;28;20031;-75
2022/09/24 01:22:23;;;;;;;;;;;12.00;72.90;;;;;;5092873;28;20369;-75
2022/09/24 01:24:58;;;;;;;0.00;0.00;;;12.00;72.90;;;;;;5092573;28;19923;-75
2022/09/24 01:27:51;;;;;;;0.10;0.10;;;12.00;72.80;;;;;;5092850;28;20020;-75
2022/09/24 01:30:17;;;;;;;0.10;0.10;;;12.00;72.80;;;;;;5092693;28;20381;-75
2022/09/24 01:32:56;;;;;;;0.10;0.10;;;12.00;72.70;;;;;;5091238;28;20089;-75
2022/09/24 01:35:38;;;;;;;0.08;0.08;;;12.00;72.70;;;;;;5092884;28;20084;-75
2022/09/24 01:38:10;;;;;;;0.00;0.00;;;12.10;72.80;;;;;;5092703;28;20028;-75
2022/09/24 01:40:37;;;;;;;0.00;0.00;;;12.10;72.80;;;;;;5091163;28;20461;-75
2022/09/24 01:43:05;;;;;;;0.10;0.10;;;12.10;72.80;;;;;;5074129;28;20024;-75
2022/09/24 01:45:33;;;;;;;0.05;0.05;;;12.10;72.80;;;;;;5091034;28;20021;-75
2022/09/24 01:48:00;;;;;;;0.10;0.10;;;12.10;72.80;;;;;;5090845;28;20020;-75
2022/09/24 01:50:29;;;;;;;0.00;0.00;;;12.10;72.80;;;;;;5090872;28;20032;-76
2022/09/24 01:53:05;;;;;;;0.10;0.10;;;12.10;72.80;;;;;;5090634;28;20114;-75
2022/09/24 01:55:40;;;;;;;0.03;0.03;;;12.10;72.80;;;;;;5092416;28;20108;-76
2022/09/24 01:58:15;;;;;;;0.10;0.10;;;12.10;72.80;;;;;;5091007;28;20028;-75
2022/09/24 02:00:46;;;;;;;0.10;0.10;;;12.10;72.80;;;;;;5092262;28;20020;-75
2022/09/24 02:03:33;;;;;;;0.10;0.10;;;12.10;72.80;;;;;;5092383;28;20020;-75
2022/09/24 02:06:04;;;;;;;0.10;0.10;;;12.00;72.80;;;;;;5092306;28;20028;-75
2022/09/24 02:08:35;;;;;;;0.10;0.10;;;12.00;72.80;;;;;;5090749;28;20032;-75
2022/09/24 02:11:19;;;;;;;0.10;0.10;;;12.00;72.80;;;;;;5092236;28;20023;-75
2022/09/24 02:13:57;;;;;;;0.10;0.10;;;12.00;72.80;;;;;;5092352;28;20028;-75
2022/09/24 02:16:27;;;;;;;0.03;0.03;;;12.00;72.80;;;;;;5092052;28;20016;-75
2022/09/24 02:18:59;;;;;;;0.10;0.10;;;12.00;72.80;;;;;;5090947;28;20439;-75
2022/09/24 02:21:26;;;;;;;0.10;0.10;;;12.00;72.80;;;;;;5092006;28;20107;-75
2022/09/24 02:23:59;;;;;;;0.10;0.10;;;12.00;72.80;;;;;;5091827;28;20024;-75
2022/09/24 02:26:25;;;;;;;0.10;0.10;;;12.00;72.80;;;;;;5091962;28;20488;-75
2022/09/24 02:28:51;;;;;;;0.10;0.10;;;12.00;72.90;;;;;;5090626;28;20119;-75
2022/09/24 02:31:23;;;;;;;0.13;0.13;;;12.00;72.90;;;;;;5090667;28;20073;-75
2022/09/24 02:36:37;;;;;;;0.10;0.10;;;12.00;72.80;;;;;;5092041;28;20042;-75
2022/09/24 02:39:03;;;;;;;0.10;0.10;;;12.10;72.80;;;;;;5091752;28;20012;-75
2022/09/24 02:41:30;;;;;;;0.20;0.20;;;12.10;72.80;;;;;;5090507;28;20024;-75
2022/09/24 02:43:55;;;;;;;0.10;0.10;;;12.10;72.80;;;;;;5090281;28;20055;-75
2022/09/24 02:46:21;;;;;;;0.10;0.10;;;12.00;72.80;;;;;;5090119;28;20478;-76
2022/09/24 02:48:47;;;;;;;0.10;0.10;;;12.00;72.80;;;;;;5090377;28;20035;-75
2022/09/24 02:51:13;;;;;;;0.10;0.10;;;12.00;72.80;;;;;;5073470;28;20020;-75
2022/09/24 02:53:39;;;;;;;0.10;0.10;;;12.00;72.80;;;;;;5090152;28;20036;-75
2022/09/24 02:56:05;;;;;;;0.20;0.20;;;12.00;73.30;;;;;;5091445;28;20039;-75
2022/09/24 02:58:30;;;;;;;0.15;0.15;;;12.00;72.80;;;;;;5073576;28;20036;-75
2022/09/24 03:00:57;;;;;;;0.10;0.10;;;12.00;72.80;;;;;;5090197;28;20020;-75
2022/09/24 03:03:23;;;;;;;0.10;0.10;;;12.00;72.80;;;;;;5091336;28;20086;-75
2022/09/24 03:05:53;;;;;;;;;;;11.90;72.80;;;;;;5090334;28;20032;-75
2022/09/24 03:08:23;;;;;;;0.10;0.10;;;12.00;72.90;;;;;;5091253;28;19908;-75
2022/09/24 03:10:50;;;;;;;0.20;0.20;;;12.00;72.80;;;;;;5091108;28;20044;-75
2022/09/24 03:13:19;;;;;;;0.20;0.20;;;11.90;72.70;;;;;;5089694;28;20020;-75
2022/09/24 03:15:45;;;;;;;1.85;1.20;;;11.90;72.80;;;;;;5091001;28;20024;-75
2022/09/24 03:18:11;;;;;;;;;;;11.90;72.80;;;;;;5090259;28;20484;-75
2022/09/24 03:20:37;;;;;;;0.10;0.10;;;11.90;72.90;;;;;;5089833;28;19904;-75
2022/09/24 03:23:03;;;;;;;0.20;0.20;;;11.90;72.90;;;;;;5089730;28;20118;-75
2022/09/24 03:25:28;;;;;;;0.20;0.20;;;11.90;72.90;;;;;;5089550;28;20052;-75
2022/09/24 03:27:54;;;;;;;0.17;0.17;;;11.90;72.90;;;;;;5089817;28;20685;-75
2022/09/24 03:33:04;;;;;;;0.20;0.20;;;11.80;72.90;;;;;;5091535;28;20055;-75
2022/09/24 03:35:30;;;;;;;0.20;0.20;;;11.80;72.90;;;;;;5089747;28;20025;-75
2022/09/24 03:37:56;;;;;;;0.30;0.30;;;11.80;72.90;;;;;;5090964;28;20060;-75
2022/09/24 03:40:22;;;;;;;0.20;0.20;;;11.70;72.80;;;;;;5090906;28;20024;-72
2022/09/24 03:42:48;;;;;;;0.30;0.30;;;11.70;72.80;;;;;;5089716;28;20090;-75
2022/09/24 03:45:13;;;;;;;0.22;0.22;;;11.60;72.80;;;;;;5090604;28;20027;-75
2022/09/24 03:47:40;;;;;;;0.30;0.30;;;11.50;72.80;;;;;;5093910;28;20036;-75
2022/09/24 03:50:10;;;;;;;0.25;0.25;;;11.40;72.80;;;;;;5076972;28;20035;-75
2022/09/24 03:52:37;;;;;;;0.30;0.30;;;11.30;72.80;;;;;;5094876;28;20473;-75
2022/09/24 03:55:03;;;;;;;0.30;0.30;;;11.20;72.80;;;;;;5094937;28;20477;-75
2022/09/24 03:57:28;;;;;;;0.40;0.40;;;11.10;72.80;;;;;;5094787;28;20077;-75
2022/09/24 03:59:54;;;;;;;0.30;0.30;;;11.00;72.80;;;;;;5093620;28;20478;-75
2022/09/24 04:02:20;;;;;;;0.30;0.30;;;10.90;72.80;;;;;;5093526;28;20484;-75
2022/09/24 04:04:46;;;;;;;0.30;0.30;;;10.90;72.80;;;;;;5093444;28;20036;-75
2022/09/24 04:07:12;;;;;;;0.40;0.40;;;10.80;72.90;;;;;;5094579;28;20470;-75
2022/09/24 04:09:37;;;;;;;0.50;0.50;;;10.80;72.90;;;;;;5094587;28;20478;-75
2022/09/24 04:12:05;;;;;;;0.50;0.50;;;10.70;72.90;;;;;;5076417;28;20064;-75
2022/09/24 04:14:30;;;;;;;0.50;0.50;;;10.70;72.90;;;;;;5093082;28;20489;-75
2022/09/24 04:16:57;;;;;;;0.70;0.70;;;10.70;72.90;;;;;;5093172;28;20028;-75
2022/09/24 04:19:24;;;;;;;0.68;0.68;;;10.60;72.90;;;;;;5094406;28;20078;-75
2022/09/24 04:21:49;;;;;;;0.80;0.80;;;10.60;72.90;;;;;;5094418;28;20039;-75
2022/09/24 04:24:15;;;;;;;0.80;0.80;;;10.50;72.90;;;;;;5094070;28;20051;-75
2022/09/24 04:26:41;;;;;;;0.63;0.63;;;10.50;72.90;;;;;;5092987;28;20499;-75
2022/09/24 04:29:07;;;;;;;0.77;0.77;;;10.50;72.90;;;;;;5093092;28;20024;-75
2022/09/24 04:31:33;;;;;;;0.77;0.77;;;10.40;72.90;;;;;;5094268;28;20463;-75
2022/09/24 04:33:58;;;;;;;0.50;0.50;;;10.40;72.90;;;;;;5092666;28;20032;-75
2022/09/24 04:36:24;;;;;;;0.70;0.70;;;10.40;72.90;;;;;;5059158;28;20033;-75
2022/09/24 04:38:50;;;;;;;0.80;0.80;;;10.50;73.00;;;;;;5092923;28;20040;-75
2022/09/24 04:41:16;;;;;;;0.93;0.93;;;10.50;73.00;;;;;;5094025;28;20469;-75
2022/09/24 04:43:45;;;;;;;0.80;0.80;;;10.50;73.00;;;;;;5092752;28;20042;-75
2022/09/24 04:46:11;;;;;;;0.80;0.80;;;10.50;73.00;;;;;;5076005;28;20036;-75
2022/09/24 04:48:37;;;;;;;0.85;0.85;;;10.50;72.90;;;;;;5075704;28;20469;-75
2022/09/24 04:51:07;;;;;;;0.90;0.90;;;10.50;72.90;;;;;;5075666;28;20104;-75
2022/09/24 04:53:35;;;;;;;0.70;0.70;;;10.50;73.00;;;;;;5093494;28;20028;-75
2022/09/24 04:56:02;;;;;;;0.77;0.77;;;10.50;73.00;;;;;;5092212;28;20051;-75
2022/09/24 04:58:28;;;;;;;0.80;0.80;;;10.50;73.00;;;;;;5092765;28;20027;-75
2022/09/24 05:00:54;;;;;;;0.90;0.90;;;10.50;73.00;;;;;;5092131;28;20536;-75
2022/09/24 05:03:20;;;;;;;0.90;0.90;;;10.40;72.90;;;;;;5092322;28;20045;-75
2022/09/24 05:05:46;;;;;;;1.10;1.10;;;10.40;72.90;;;;;;5093531;28;20560;-75
2022/09/24 05:08:12;;;;;;;1.00;1.00;;;10.40;73.00;;;;;;5092107;28;20059;-75
2022/09/24 05:10:38;;;;;;;1.15;1.10;;;10.40;73.00;;;;;;5093448;28;20063;-75
2022/09/24 05:13:04;;;;;;;1.02;1.02;;;10.40;72.90;;;;;;5075295;28;20520;-75
2022/09/24 05:15:30;;;;;;;1.40;1.30;;;10.40;72.90;;;;;;5091949;28;21471;-75
2022/09/24 05:17:56;;;;;;;;;;;10.30;72.90;;;;;;5093705;28;20054;-75
2022/09/24 05:20:22;;;;;;;0.80;0.80;;;10.30;72.90;;;;;;5093140;28;19951;-75
2022/09/24 05:22:48;;;;;;;1.10;1.10;;;10.30;72.80;;;;;;5093156;28;20576;-75
2022/09/24 05:25:15;;;;;;;1.02;1.02;;;10.30;72.90;;;;;;5092718;28;20082;-75
2022/09/24 05:27:45;;;;;;;1.17;1.15;;;10.40;73.00;;;;;;5093177;28;20580;-75
2022/09/24 05:30:11;;;;;;;1.10;1.10;;;10.40;73.00;;;;;;5093181;28;20028;-75
2022/09/24 05:32:37;;;;;;;0.98;0.98;;;10.40;73.00;;;;;;5091757;28;20056;-75
2022/09/24 05:35:03;;;;;;;0.90;0.90;;;10.50;73.00;;;;;;5091690;28;20063;-75
2022/09/24 05:37:29;;;;;;;1.00;1.00;;;10.60;73.00;;;;;;5091363;28;20028;-75
2022/09/24 05:39:56;;;;;;;0.90;0.90;;;10.60;72.90;;;;;;5091694;28;20433;-75
2022/09/24 05:42:22;;;;;;;1.10;1.10;;;10.70;72.90;;;;;;5091503;28;20031;-75
2022/09/24 05:44:47;;;;;;;0.95;0.95;;;10.70;72.80;;;;;;5091460;28;20020;-75
2022/09/24 05:47:13;;;;;;;0.90;0.90;;;10.70;72.80;;;;;;5091566;28;20062;-75
2022/09/24 05:49:39;;;;;;;0.85;0.85;;;10.70;72.80;;;;;;5092658;28;20103;-76
2022/09/24 05:52:05;;;;;;;0.90;0.90;;;10.80;72.90;;;;;;5092483;28;20110;-75
2022/09/24 05:54:32;;;;;;;0.90;0.90;;;10.80;72.90;;;;;;5092378;28;20446;-75
2022/09/24 05:56:57;;;;;;;1.02;1.02;;;10.80;72.90;;;;;;5074522;28;20027;-76
2022/09/24 05:59:23;;;;;;;0.93;0.93;;;10.80;72.90;;;;;;5091093;28;20470;-76
2022/09/24 06:01:49;;;;;;;0.90;0.90;;;10.90;72.90;;;;;;5092203;28;20035;-76
2022/09/24 06:04:15;;;;;;;0.57;0.57;;;10.90;72.90;;;;;;5091154;28;20036;-75
2022/09/24 06:06:42;;;;;;;;;;;10.90;72.90;;;;;;5092733;28;20116;-75
2022/09/24 06:09:08;;;;;;;0.80;0.80;;;11.00;73.00;;;;;;5092391;28;19915;-75
2022/09/24 06:11:34;;;;;;;0.90;0.90;;;11.00;72.80;;;;;;5091036;28;20028;-76
2022/09/24 06:14:04;;;;;;;1.00;1.00;;;11.10;73.30;;;;;;5092149;28;20075;-75
2022/09/24 06:16:32;;;;;;;1.00;1.00;;;11.10;72.90;;;;;;5074169;28;20155;-75
2022/09/24 06:18:58;;;;;;;1.00;1.00;;;11.10;72.90;;;;;;5091995;28;20095;-75
2022/09/24 06:21:23;;;;;;;0.75;0.75;;;11.10;72.90;;;;;;5090676;28;20107;-75
2022/09/24 06:23:49;;;;;;;1.02;1.02;;;11.10;72.90;;;;;;5090636;28;20036;-75
2022/09/24 06:26:15;;;;;;;0.88;0.88;;;11.10;72.90;;;;;;5090491;28;20032;-75
2022/09/24 06:28:41;;;;;;;0.80;0.80;;;11.00;72.80;;;;;;5090619;28;20107;-75
2022/09/24 06:31:08;;;;;;;0.90;0.90;;;11.00;72.90;;;;;;5091578;28;20105;-75
2022/09/24 06:33:34;;;;;;;1.02;1.02;;;10.90;73.00;;;;;;5090043;28;20153;-75
2022/09/24 06:36:01;;;;;;;1.05;1.05;;;10.90;73.10;;;;;;5073764;28;20122;-75
2022/09/24 06:38:27;;;;;;;1.00;1.00;;;10.90;73.10;;;;;;5090111;28;20492;-75
2022/09/24 06:41:01;;;;;;;0.93;0.93;;;10.90;73.10;;;;;;5091592;28;20108;-75
2022/09/24 06:43:27;;;;;;;0.90;0.90;;;11.00;73.10;;;;;;5090301;28;20044;-75
2022/09/24 06:45:57;;;;;;;0.90;0.90;;;11.00;73.10;;;;;;5090307;28;20027;-75
2022/09/24 06:48:23;;;;;;;0.63;0.63;;;11.10;73.10;;;;;;5090198;28;20032;-75
2022/09/24 06:50:50;;;;;;;0.75;0.75;;;11.20;73.10;;;;;;5091341;28;20396;-75
2022/09/24 06:53:16;;;;;;;1.08;1.08;;;11.20;73.10;;;;;;5090033;28;20035;-75
2022/09/24 06:55:41;;;;;;;0.70;0.70;;;11.30;73.20;;;;;;5072839;28;20036;-74
2022/09/24 06:58:10;;;;;;;1.10;1.10;;;11.40;73.20;;;;;;5091276;28;20028;-75
2022/09/24 07:00:37;;;;;;;0.68;0.68;;;11.50;73.20;;;;;;5091280;28;20016;-75
2022/09/24 07:03:03;;;;;;;0.88;0.88;;;11.60;73.20;;;;;;5090088;28;20439;-76
2022/09/24 07:05:29;;;;;;;0.80;0.80;;;11.80;73.30;;;;;;5089809;28;20727;-75
2022/09/24 07:07:55;;;;;;;0.80;0.80;;;11.90;73.20;;;;;;5090604;28;20036;-75
2022/09/24 07:10:23;;;;;;;0.80;0.80;;;11.90;73.10;;;;;;5091144;28;20366;-75
2022/09/24 07:12:49;;;;;;;0.60;0.60;;;12.00;73.10;;;;;;5090987;28;20115;-75
2022/09/24 07:15:14;;;;;;;0.80;0.80;;;12.10;73.10;;;;;;5090859;28;20115;-75
2022/09/24 07:17:40;;;;;;;0.70;0.70;;;12.10;73.10;;;;;;5091173;28;20032;-75
2022/09/24 07:20:06;;;;;;;0.80;0.80;;;12.20;73.10;;;;;;5089333;28;20024;-75
2022/09/24 07:22:36;;;;;;;;;;;12.30;73.10;;;;;;5073295;28;20059;-75
2022/09/24 07:25:02;;;;;;;0.80;0.80;;;12.40;73.10;;;;;;5090574;28;20335;-75
2022/09/24 07:27:28;;;;;;;0.75;0.75;;;12.50;73.10;;;;;;5091163;28;20036;-77
2022/09/24 07:29:53;;;;;;;0.57;0.57;;;12.50;73.20;;;;;;5089133;28;20370;-76
2022/09/24 07:32:19;;;;;;;0.90;0.90;;;12.70;73.30;;;;;;5090847;28;20150;-76
2022/09/24 07:34:45;;;;;;;0.80;0.80;;;12.70;73.30;;;;;;5089477;28;20085;-77
2022/09/24 07:37:11;;;;;;;0.60;0.60;;;12.80;73.30;;;;;;5089274;28;20028;-76
2022/09/24 07:39:37;;;;;;;0.60;0.60;;;12.90;73.40;;;;;;5090593;28;20393;-76
2022/09/24 07:42:04;;;;;;;0.60;0.60;;;13.00;73.50;;;;;;5072661;28;20054;-76
2022/09/24 07:44:30;;;;;;;0.30;0.30;;;13.00;73.40;;;;;;5072392;28;20104;-74
2022/09/24 07:46:57;;;;;;;0.40;0.40;;;13.10;73.50;;;;;;5089298;28;20040;-75
2022/09/24 07:49:23;;;;;;;0.40;0.40;;;13.10;73.60;;;;;;5089356;28;20420;-74
2022/09/24 07:51:49;;;;;;;0.50;0.50;;;13.20;73.60;;;;;;5090998;28;20020;-75
2022/09/24 07:54:15;;;;;;;0.30;0.30;;;13.30;73.80;;;;;;5088959;28;20046;-75
2022/09/24 07:56:41;;;;;;;0.40;0.40;;;13.40;73.80;;;;;;5090153;28;20012;-76
2022/09/24 07:59:10;;;;;;;0.30;0.30;;;13.50;73.70;;;;;;5090166;28;20027;-76
2022/09/24 08:01:36;;;;;;;0.20;0.20;;;13.50;73.70;;;;;;5072666;28;20036;-76
2022/09/24 08:04:03;;;;;;;0.20;0.20;;;13.60;73.90;;;;;;5090021;28;20021;-76
2022/09/24 08:06:32;;;;;;;0.20;0.20;;;13.70;73.90;;;;;;5088433;28;20480;-76
2022/09/24 08:08:58;;;;;;;0.20;0.20;;;13.90;74.00;;;;;;5088787;28;20058;-76
2022/09/24 08:11:24;;;;;;;0.20;0.20;;;14.00;74.10;;;;;;5090283;28;20031;-76
2022/09/24 08:13:50;;;;;;;0.20;0.20;;;14.30;74.10;;;;;;5088761;28;20451;-76
2022/09/24 08:16:16;;;;;;;0.20;0.20;;;14.40;74.00;;;;;;5072108;28;20028;-76
2022/09/24 08:18:42;;;;;;;;;;;14.50;73.90;;;;;;5088678;28;20116;-76
2022/09/24 08:21:10;;;;;;;0.10;0.10;;;14.60;73.80;;;;;;5071784;28;19975;-76
2022/09/24 08:23:37;;;;;;;0.10;0.10;;;14.70;73.70;;;;;;5090284;28;20032;-76
2022/09/24 08:26:03;;;;;;;0.00;0.00;;;14.70;73.60;;;;;;5088740;28;20051;-76
2022/09/24 08:28:30;;;;;;;0.38;0.28;;;14.70;73.70;;;;;;5088250;28;20036;-76
2022/09/24 08:31:03;;;;;;;0.10;0.10;;;14.60;73.80;;;;;;5088420;28;20484;-75
2022/09/24 08:33:31;;;;;;;0.00;0.00;;;14.50;73.90;;;;;;5092558;28;20036;-77
2022/09/24 08:36:05;;;;;;;0.03;0.03;;;14.50;74.10;;;;;;5092031;28;20027;-77
2022/09/24 08:38:31;;;;;;;0.00;0.00;;;14.50;74.10;;;;;;5092465;28;20367;-76
2022/09/24 08:41:11;;;;;;;0.00;0.00;;;14.50;74.10;;;;;;5092252;28;20020;-76
2022/09/24 08:43:56;;;;;;;0.00;0.00;;;14.60;74.20;;;;;;5093831;28;20488;-76
2022/09/24 08:50:02;;;;;;;0.00;0.00;;;14.80;74.20;;;;;;5112024;28;20598;-76
2022/09/24 08:52:54;;;;;;;0.00;0.00;;;14.80;74.20;;;;;;5112203;28;20550;-75
2022/09/24 08:55:33;;;;;;;0.00;0.00;;;14.90;74.40;;;;;;5109333;28;20036;-76
2022/09/24 08:58:19;;;;;;;0.00;0.00;;;15.00;74.40;;;;;;5094320;28;20024;-76
2022/09/24 09:01:11;;;;;;;0.00;0.00;;;15.10;74.40;;;;;;5092990;28;20038;-76
2022/09/24 09:04:03;;;;;;;0.00;0.00;;;15.20;74.30;;;;;;5093668;28;20093;-76
2022/09/24 09:06:39;;;;;;;0.00;0.00;;;15.20;74.30;;;;;;5092737;28;20084;-75
2022/09/24 09:09:13;;;;;;;0.00;0.00;;;15.20;74.40;;;;;;5093712;28;20024;-76
2022/09/24 09:11:42;;;;;;;0.00;0.00;;;15.20;74.50;;;;;;5093420;28;20028;-76
2022/09/24 09:14:14;;;;;;;0.00;0.00;;;15.30;74.30;;;;;;5092740;28;20050;-76
2022/09/24 09:16:46;;;;;;;0.00;0.00;;;15.20;74.30;;;;;;5094077;28;20023;-77
2022/09/24 09:19:14;;;;;;;0.00;0.00;;;15.30;74.70;;;;;;5092579;28;20481;-77
2022/09/24 09:21:57;;;;;;;0.00;0.00;;;15.50;74.90;;;;;;5091903;28;20053;-77
2022/09/24 09:24:54;;;;;;;0.00;0.00;;;15.90;75.60;;;;;;5073231;28;20111;-77
2022/09/24 09:27:20;;;;;;;0.00;0.00;;;16.90;75.60;;;;;;5064156;28;20036;-77
2022/09/24 09:29:49;;;;;;;;;;;17.40;75.20;;;;;;5083998;28;20451;-77
2022/09/24 09:33:02;;;;;;;0.00;0.00;;;17.60;74.70;;;;;;5087804;28;20567;-77
2022/09/24 09:36:00;;;;;;;0.00;0.00;;;17.60;74.80;;;;;;5051660;28;20104;-77
2022/09/24 09:38:40;;;;;;;;;;;17.50;74.60;;;;;;5082272;28;20043;-77
2022/09/24 09:41:15;;;;;;;0.00;0.00;;;17.60;75.00;;;;;;5073149;28;19912;-77
2022/09/24 09:43:41;;;;;;;0.00;0.00;;;17.90;75.10;;;;;;5078733;28;20042;-76
2022/09/24 09:46:29;;;;;;;0.00;0.00;;;18.10;75.20;;;;;;5084503;28;20054;-77
2022/09/24 09:49:04;;;;;;;0.00;0.00;;;18.60;75.90;;;;;;5082552;28;20035;-77
2022/09/24 09:51:37;;;;;;;0.00;0.00;;;19.00;75.50;;;;;;5081460;28;20493;-77
2022/09/24 09:54:03;;;;;;;0.00;0.00;;;19.10;75.20;;;;;;5081881;28;20028;-77
2022/09/24 09:56:34;;;;;;;0.00;0.00;;;19.10;75.30;;;;;;5085340;28;20028;-78
2022/09/24 09:59:11;;;;;;;0.00;0.00;;;19.00;75.40;;;;;;5074265;28;20035;-79
2022/09/24 10:01:42;;;;;;;0.00;0.00;;;19.20;76.60;;;;;;5079645;28;20025;-77
2022/09/24 10:04:39;;;;;;;0.00;0.00;;;20.00;77.50;;;;;;5071307;28;20025;-79
2022/09/24 10:07:06;;;;;;;0.00;0.00;;;21.00;77.30;;;;;;5072507;28;20476;-78
2022/09/24 10:09:32;;;;;;;0.00;0.00;;;21.40;76.20;;;;;;5072076;28;20040;-76
2022/09/24 10:12:07;;;;;;;;;;;22.00;76.60;;;;;;5072792;28;20378;-77
2022/09/24 10:14:33;;;;;;;0.00;0.00;;;22.10;75.40;;;;;;5070841;28;19909;-77
2022/09/24 10:17:04;;;;;;;0.00;0.00;;;21.70;74.80;;;;;;5070842;28;20025;-77
2022/09/24 10:19:34;;;;;;;0.00;0.00;;;21.20;75.00;;;;;;5072267;28;20074;-77
2022/09/24 10:22:10;;;;;;;0.00;0.00;;;20.90;75.40;;;;;;5071770;28;20016;-78
2022/09/24 10:24:40;;;;;;;0.20;0.10;;;20.70;75.40;;;;;;5082955;28;20077;-76
2022/09/24 10:27:18;;;;;;;0.00;0.00;;;20.60;76.10;;;;;;5082369;28;20029;-74
2022/09/24 10:32:29;;;;;;;0.00;0.00;;;20.40;75.40;;;;;;5078769;28;20038;-77
2022/09/24 10:34:55;;;;;;;;;;;20.20;75.30;;;;;;5079539;28;20027;-76
2022/09/24 10:37:21;;;;;;;0.00;0.00;;;19.90;75.40;;;;;;5085233;28;19908;-73
2022/09/24 10:40:11;;;;;;;0.00;0.00;;;19.80;75.80;;;;;;5078046;28;20133;-73
2022/09/24 10:42:37;;;;;;;0.00;0.00;;;19.80;76.10;;;;;;5080461;28;20024;-74
2022/09/24 10:45:09;;;;;;;;;;;19.90;75.80;;;;;;5082839;28;20028;-74
2022/09/24 10:47:58;;;;;;;0.00;0.00;;;19.80;75.40;;;;;;5081657;28;19975;-74
2022/09/24 10:50:36;;;;;;;0.00;0.00;;;19.60;75.60;;;;;;5081293;28;20025;-74
2022/09/24 10:53:26;;;;;;;0.00;0.00;;;19.60;75.90;;;;;;5080684;28;20035;-76
2022/09/24 10:56:13;;;;;;;0.00;0.00;;;19.60;75.90;;;;;;5084693;28;20020;-75
2022/09/24 10:59:02;;;;;;;;;;;19.50;75.50;;;;;;5078514;28;20115;-75
2022/09/24 11:01:47;;;;;;;0.00;0.00;;;19.40;75.50;;;;;;5079280;28;19966;-76
2022/09/24 11:04:28;;;;;;;0.00;0.00;;;19.20;75.40;;;;;;5081411;28;20024;-75
2022/09/24 11:07:12;;;;;;;0.00;0.00;;;19.10;76.00;;;;;;5078591;28;20024;-76
2022/09/24 11:09:56;;;;;;;0.00;0.00;;;19.30;76.20;;;;;;5079889;28;20114;-76
2022/09/24 11:12:25;;;;;;;0.00;0.00;;;19.50;76.20;;;;;;5080153;28;20059;-76
2022/09/24 11:15:13;;;;;;;0.00;0.00;;;19.70;76.10;;;;;;5086302;28;20069;-76
2022/09/24 11:17:51;;;;;;;0.00;0.00;;;20.00;76.20;;;;;;5080155;28;20420;-75
2022/09/24 11:20:35;;;;;;;0.00;0.00;;;20.40;76.40;;;;;;5079325;28;20182;-74
2022/09/24 11:23:13;;;;;;;0.00;0.00;;;20.90;76.60;;;;;;5080282;28;20024;-75
2022/09/24 11:25:44;;;;;;;0.00;0.00;;;21.20;76.00;;;;;;5080815;28;20050;-74
2022/09/24 11:28:34;;;;;;;0.00;0.00;;;21.30;77.00;;;;;;5082809;28;20053;-75
2022/09/24 11:31:15;;;;;;;0.10;0.08;;;22.40;78.10;;;;;;5078469;28;20020;-77
2022/09/24 11:34:03;;;;;;;0.00;0.00;;;23.60;77.70;;;;;;5083670;28;20106;-77
2022/09/24 11:36:35;;;;;;;0.00;0.00;;;24.30;77.20;;;;;;5081841;28;20016;-74
2022/09/24 11:39:28;;;;;;;0.00;0.00;;;24.80;77.20;;;;;;5080840;28;20028;-77
2022/09/24 11:42:15;;;;;;;0.00;0.00;;;25.30;77.30;;;;;;5080100;28;20028;-74
2022/09/24 11:45:15;;;;;;;0.00;0.00;;;25.50;77.10;;;;;;5080933;28;20016;-73
2022/09/24 11:48:08;;;;;;;0.00;0.00;;;26.00;77.70;;;;;;5080504;28;20019;-74
2022/09/24 11:50:39;;;;;;;0.00;0.00;;;25.50;75.70;;;;;;5079922;28;20029;-74
2022/09/24 11:53:12;;;;;;;0.00;0.00;;;25.10;77.00;;;;;;5079576;28;20117;-74
2022/09/24 11:55:53;;;;;;;0.00;0.00;;;25.10;77.60;;;;;;5080199;28;20017;-74
2022/09/24 11:58:32;;;;;;;0.00;0.00;;;25.30;77.40;;;;;;5078961;28;20042;-77
2022/09/24 12:01:19;;;;;;;0.00;0.00;;;24.90;76.60;;;;;;5080072;28;20106;-76
2022/09/24 12:04:06;;;;;;;0.00;0.00;;;24.30;75.90;;;;;;5080971;28;20029;-75
2022/09/24 12:07:01;;;;;;;0.00;0.00;;;23.40;75.30;;;;;;5084127;28;20029;-78
2022/09/24 12:09:30;;;;;;;0.03;0.00;;;22.60;76.90;;;;;;5077675;28;20025;-77
2022/09/24 12:12:06;;;;;;;0.00;0.00;;;22.90;78.20;;;;;;5082016;28;20024;-74
2022/09/24 12:14:48;;;;;;;0.00;0.00;;;23.00;78.00;;;;;;5083219;28;20021;-77
2022/09/24 12:17:25;;;;;;;0.20;0.15;;;23.30;77.80;;;;;;5094979;28;20043;-76
2022/09/24 12:19:59;;;;;;;;;;;23.00;76.70;;;;;;5094117;28;20485;-76
2022/09/24 12:22:26;;;;;;;0.00;0.00;;;22.60;76.30;;;;;;5078984;28;19912;-74
2022/09/24 12:24:57;;;;;;;0.00;0.00;;;21.80;75.90;;;;;;5080038;28;20119;-75
2022/09/24 12:27:37;;;;;;;0.00;0.00;;;21.10;76.50;;;;;;5075864;28;20089;-75
2022/09/24 12:33:21;;;;;;;0.00;0.00;;;20.50;76.80;;;;;;5082003;28;20032;-75
2022/09/24 12:35:50;;;;;;;0.00;0.00;;;20.10;76.30;;;;;;5082203;28;20025;-75
2022/09/24 12:38:18;;;;;;;0.00;0.00;;;19.80;76.20;;;;;;5080349;28;20108;-76
2022/09/24 12:41:17;;;;;;;0.00;0.00;;;19.60;76.30;;;;;;5079634;28;20028;-76
2022/09/24 12:43:43;;;;;;;0.00;0.00;;;19.40;76.00;;;;;;5084396;28;20032;-74
2022/09/24 12:46:23;;;;;;;0.00;0.00;;;19.10;75.90;;;;;;5085148;28;20028;-75
2022/09/24 12:48:51;;;;;;;0.00;0.00;;;19.10;76.30;;;;;;5081834;28;20021;-75
2022/09/24 12:51:21;;;;;;;0.00;0.00;;;19.30;77.10;;;;;;5082398;28;20028;-76
2022/09/24 12:54:06;;;;;;;0.00;0.00;;;20.10;78.00;;;;;;5087403;28;20500;-76
2022/09/24 12:56:33;;;;;;;0.00;0.00;;;20.50;76.60;;;;;;5081271;28;20027;-76
2022/09/24 12:58:59;;;;;;;0.25;0.22;;;20.40;76.10;;;;;;5081237;28;20052;-74
2022/09/24 13:01:30;;;;;;;0.00;0.00;;;20.70;77.30;;;;;;5082956;28;20016;-73
2022/09/24 13:04:24;;;;;;;0.00;0.00;;;21.30;77.70;;;;;;5081892;28;20027;-73
2022/09/24 13:06:49;;;;;;;0.00;0.00;;;21.90;77.80;;;;;;5085831;28;20016;-76
2022/09/24 13:09:35;;;;;;;0.00;0.00;;;22.60;77.50;;;;;;5084239;28;20567;-76
2022/09/24 13:12:19;;;;;;;0.00;0.00;;;23.10;77.60;;;;;;5082208;28;20047;-77
2022/09/24 13:14:55;;;;;;;0.00;0.00;;;23.10;76.50;;;;;;5086965;28;20057;-74
2022/09/24 13:17:21;;;;;;;0.00;0.00;;;23.20;77.10;;;;;;5081761;28;20016;-77
2022/09/24 13:19:56;;;;;;;0.00;0.00;;;23.30;77.40;;;;;;5081517;28;20119;-75
2022/09/24 13:22:28;;;;;;;0.00;0.00;;;23.60;77.50;;;;;;5082146;28;20198;-78
2022/09/24 13:25:19;;;;;;;0.00;0.00;;;23.60;76.90;;;;;;5077904;28;20045;-77
2022/09/24 13:28:02;;;;;;;0.00;0.00;;;23.70;77.30;;;;;;5080846;28;20044;-75